createdAt,value
2022-09-06T00:00:33.520Z,100610.55
2022-09-06T00:01:35.560Z,100615.80
2022-09-06T00:02:38.153Z,100616.63
2022-09-06T00:03:40.610Z,100624.48
2022-09-06T00:04:43.173Z,100616.64
2022-09-06T00:05:45.486Z,100614.86
2022-09-06T00:06:47.525Z,100613.92
2022-09-06T00:07:49.478Z,100613.87
2022-09-06T00:08:51.247Z,100613.87
2022-09-06T00:09:53.230Z,100612.19
2022-09-06T00:11:01.034Z,100604.47
2022-09-06T00:12:03.195Z,100613.15
2022-09-06T00:13:07.183Z,100614.86
2022-09-06T00:14:09.101Z,100620.05
2022-09-06T00:15:11.093Z,100615.68
2022-09-06T00:16:17.630Z,100615.20
2022-09-06T00:17:20.375Z,100616.08
2022-09-06T00:18:22.553Z,100616.03
2022-09-06T00:19:24.779Z,100611.71
2022-09-06T00:20:29.106Z,100616.16
2022-09-06T00:21:31.442Z,100606.75
2022-09-06T00:22:33.577Z,100611.95
2022-09-06T00:23:35.631Z,100622.50
2022-09-06T00:24:37.710Z,100609.63
2022-09-06T00:25:39.757Z,100613.16
2022-09-06T00:26:41.678Z,100615.69
2022-09-06T00:27:43.824Z,100613.81
2022-09-06T00:28:46.013Z,100604.25
2022-09-06T00:29:48.428Z,100611.05
2022-09-06T00:30:50.744Z,100609.23
2022-09-06T00:31:52.913Z,100601.39
2022-09-06T00:32:55.452Z,100604.81
2022-09-06T00:33:57.494Z,100608.23
2022-09-06T00:34:59.831Z,100606.52
2022-09-06T00:36:02.516Z,100605.58
2022-09-06T00:37:04.673Z,100608.12
2022-09-06T00:38:06.842Z,100609.84
2022-09-06T00:39:08.970Z,100605.45
2022-09-06T00:40:12.224Z,100607.95
2022-09-06T00:41:15.904Z,100604.57
2022-09-06T00:42:18.400Z,100612.31
2022-09-06T00:43:20.547Z,100608.83
2022-09-06T00:44:22.574Z,100607.94
2022-09-06T00:45:27.317Z,100612.31
2022-09-06T00:46:32.172Z,100607.95
2022-09-06T00:47:37.475Z,100609.66
2022-09-06T00:48:41.790Z,100616.64
2022-09-06T00:49:47.738Z,100609.77
2022-09-06T00:50:53.640Z,100617.63
2022-09-06T00:51:59.410Z,100615.15
2022-09-06T00:53:01.893Z,100614.31
2022-09-06T00:54:06.296Z,100608.36
2022-09-06T00:55:09.492Z,100606.75
2022-09-06T00:56:13.923Z,100606.75
2022-09-06T00:57:17.402Z,100606.75
2022-09-06T00:58:19.698Z,100606.03
2022-09-06T00:59:28.460Z,100606.91
2022-09-06T01:00:30.770Z,100609.58
2022-09-06T01:01:33.525Z,100614.05
2022-09-06T01:02:36.506Z,100608.86
2022-09-06T01:03:39.481Z,100610.56
2022-09-06T01:04:44.865Z,100614.00
2022-09-06T01:05:59.277Z,100609.67
2022-09-06T01:08:26.960Z,100598.30
2022-09-06T01:09:35.692Z,100610.79
2022-09-06T01:12:22.427Z,100614.79
2022-09-06T01:13:46.874Z,100614.31
2022-09-06T01:16:31.458Z,100620.09
2022-09-06T01:17:43.086Z,100617.75
2022-09-06T01:18:54.755Z,100610.02
2022-09-06T01:20:21.257Z,100615.26
2022-09-06T01:21:38.904Z,100614.56
2022-09-06T01:22:59.836Z,100615.51
2022-09-06T01:24:22.573Z,100617.27
2022-09-06T01:25:43.522Z,100619.17
2022-09-06T01:27:07.399Z,100623.77
2022-09-06T01:28:18.746Z,100617.86
2022-09-06T01:29:45.823Z,100616.97
2022-09-06T01:30:57.973Z,100622.30
2022-09-06T01:32:12.426Z,100622.53
2022-09-06T01:33:20.852Z,100614.70
2022-09-06T01:34:32.630Z,100618.12
2022-09-06T01:35:47.136Z,100615.58
2022-09-06T01:37:10.186Z,100622.53
2022-09-06T01:38:10.001Z,100621.73
2022-09-06T01:39:15.624Z,100619.05
2022-09-06T01:40:18.261Z,100619.84
2022-09-06T01:41:20.324Z,100623.31
2022-09-06T01:42:29.050Z,100626.73
2022-09-06T01:43:34.721Z,100624.98
2022-09-06T01:44:38.793Z,100624.94
2022-09-06T01:46:04.432Z,100625.83
2022-09-06T01:47:19.057Z,100621.55
2022-09-06T01:48:44.094Z,100634.56
2022-09-06T01:49:52.929Z,100631.92
2022-09-06T01:51:10.433Z,100625.81
2022-09-06T01:54:01.494Z,100632.48
2022-09-06T01:55:29.494Z,100633.73
2022-09-06T01:56:59.312Z,100635.53
2022-09-06T01:58:23.367Z,100625.21
2022-09-06T01:59:44.108Z,100624.46
2022-09-06T02:01:09.876Z,100633.95
2022-09-06T02:02:37.366Z,100633.03
2022-09-06T02:05:17.338Z,100633.03
2022-09-06T02:06:23.795Z,100634.13
2022-09-06T02:07:28.996Z,100628.06
2022-09-06T02:08:34.720Z,100628.06
2022-09-06T02:09:40.187Z,100625.39
2022-09-06T02:10:48.677Z,100627.94
2022-09-06T02:11:59.421Z,100630.52
2022-09-06T02:13:05.095Z,100635.76
2022-09-06T02:14:10.702Z,100631.53
2022-09-06T02:15:28.342Z,100630.61
2022-09-06T02:16:35.090Z,100635.00
2022-09-06T02:17:41.818Z,100640.19
2022-09-06T02:18:49.988Z,100634.13
2022-09-06T02:19:58.348Z,100640.23
2022-09-06T02:21:02.860Z,100637.67
2022-09-06T02:22:08.511Z,100640.23
2022-09-06T02:23:11.982Z,100636.09
2022-09-06T02:25:31.235Z,100641.15
2022-09-06T02:26:37.002Z,100647.50
2022-09-06T02:27:39.620Z,100643.16
2022-09-06T02:28:41.863Z,100641.56
2022-09-06T02:29:44.115Z,100640.61
2022-09-06T02:30:49.927Z,100644.03
2022-09-06T02:32:10.290Z,100642.28
2022-09-06T02:33:15.952Z,100641.36
2022-09-06T02:34:19.827Z,100633.51
2022-09-06T02:35:22.648Z,100636.22
2022-09-06T02:36:25.161Z,100637.98
2022-09-06T02:37:27.207Z,100635.55
2022-09-06T02:38:30.510Z,100632.91
2022-09-06T02:39:32.874Z,100637.38
2022-09-06T02:40:35.599Z,100636.55
2022-09-06T02:41:40.432Z,100640.13
2022-09-06T02:42:42.618Z,100641.13
2022-09-06T02:43:44.589Z,100648.89
2022-09-06T02:44:46.362Z,100649.80
2022-09-06T02:45:48.293Z,100646.38
2022-09-06T02:46:53.859Z,100650.69
2022-09-06T02:47:54.460Z,100647.33
2022-09-06T02:48:56.435Z,100652.55
2022-09-06T02:49:58.994Z,100649.08
2022-09-06T02:51:06.309Z,100647.22
2022-09-06T02:52:08.410Z,100649.69
2022-09-06T02:53:12.754Z,100653.12
2022-09-06T02:54:14.885Z,100653.23
2022-09-06T02:55:16.811Z,100643.83
2022-09-06T02:56:20.434Z,100642.08
2022-09-06T02:57:22.460Z,100646.30
2022-09-06T02:58:24.550Z,100636.67
2022-09-06T02:59:26.656Z,100639.14
2022-09-06T03:00:29.947Z,100644.98
2022-09-06T03:01:32.733Z,100638.80
2022-09-06T03:02:35.060Z,100645.62
2022-09-06T03:03:37.175Z,100646.50
2022-09-06T03:04:39.241Z,100647.25
2022-09-06T03:05:42.054Z,100641.15
2022-09-06T03:06:44.334Z,100648.84
2022-09-06T03:07:46.376Z,100645.33
2022-09-06T03:08:48.480Z,100647.88
2022-09-06T03:09:50.754Z,100641.85
2022-09-06T03:10:54.982Z,100640.94
2022-09-06T03:11:57.607Z,100640.94
2022-09-06T03:13:00.176Z,100646.13
2022-09-06T03:14:02.218Z,100642.66
2022-09-06T03:15:05.510Z,100644.36
2022-09-06T03:16:08.133Z,100652.18
2022-09-06T03:17:10.266Z,100654.81
2022-09-06T03:18:12.382Z,100647.91
2022-09-06T03:19:14.418Z,100654.86
2022-09-06T03:20:17.717Z,100655.82
2022-09-06T03:21:19.952Z,100655.03
2022-09-06T03:22:21.905Z,100658.66
2022-09-06T03:23:26.830Z,100655.23
2022-09-06T03:24:31.076Z,100658.74
2022-09-06T03:25:33.257Z,100656.98
2022-09-06T03:26:35.802Z,100652.67
2022-09-06T03:27:39.009Z,100658.70
2022-09-06T03:28:41.126Z,100660.41
2022-09-06T03:29:43.093Z,100657.78
2022-09-06T03:30:47.924Z,100661.25
2022-09-06T03:31:50.189Z,100657.86
2022-09-06T03:32:53.448Z,100665.88
2022-09-06T03:33:55.504Z,100671.20
2022-09-06T03:34:57.977Z,100660.92
2022-09-06T03:36:04.343Z,100669.45
2022-09-06T03:37:10.112Z,100667.02
2022-09-06T03:38:20.521Z,100669.83
2022-09-06T03:39:22.594Z,100667.31
2022-09-06T03:40:25.260Z,100676.58
2022-09-06T03:41:27.280Z,100676.58
2022-09-06T03:42:29.421Z,100674.78
2022-09-06T03:43:31.954Z,100686.78
2022-09-06T03:44:33.996Z,100677.22
2022-09-06T03:45:35.973Z,100686.81
2022-09-06T03:46:39.232Z,100678.94
2022-09-06T03:47:42.024Z,100675.39
2022-09-06T03:48:47.184Z,100673.76
2022-09-06T03:49:49.778Z,100678.17
2022-09-06T03:50:54.714Z,100674.75
2022-09-06T03:51:56.816Z,100683.35
2022-09-06T03:52:58.765Z,100680.57
2022-09-06T03:54:00.741Z,100673.45
2022-09-06T03:55:04.079Z,100680.18
2022-09-06T03:56:07.476Z,100672.36
2022-09-06T03:57:09.840Z,100682.61
2022-09-06T03:58:11.890Z,100673.03
2022-09-06T03:59:13.946Z,100677.22
2022-09-06T04:00:18.721Z,100672.83
2022-09-06T04:01:20.849Z,100675.34
2022-09-06T04:02:23.026Z,100674.50
2022-09-06T04:03:25.108Z,100689.17
2022-09-06T04:04:27.206Z,100687.55
2022-09-06T04:05:29.232Z,100685.20
2022-09-06T04:06:31.831Z,100693.02
2022-09-06T04:07:33.921Z,100689.67
2022-09-06T04:08:37.108Z,100695.61
2022-09-06T04:09:39.219Z,100695.77
2022-09-06T04:10:43.513Z,100695.80
2022-09-06T04:11:49.098Z,100696.80
2022-09-06T04:12:55.420Z,100704.72
2022-09-06T04:14:03.661Z,100700.50
2022-09-06T04:15:08.834Z,100713.55
2022-09-06T04:16:12.690Z,100703.27
2022-09-06T04:17:14.796Z,100704.06
2022-09-06T04:18:16.956Z,100703.12
2022-09-06T04:19:20.025Z,100707.42
2022-09-06T04:20:22.862Z,100714.20
2022-09-06T04:21:25.035Z,100704.72
2022-09-06T04:22:27.105Z,100702.25
2022-09-06T04:23:29.374Z,100704.76
2022-09-06T04:24:32.346Z,100697.86
2022-09-06T04:25:34.541Z,100704.72
2022-09-06T04:26:37.002Z,100703.95
2022-09-06T04:27:39.045Z,100703.84
2022-09-06T04:28:41.062Z,100702.02
2022-09-06T04:29:43.052Z,100698.59
2022-09-06T04:30:54.117Z,100702.02
2022-09-06T04:31:56.289Z,100706.20
2022-09-06T04:32:58.515Z,100693.09
2022-09-06T04:34:00.573Z,100689.67
2022-09-06T04:35:03.231Z,100691.30
2022-09-06T04:36:08.519Z,100696.48
2022-09-06T04:37:10.696Z,100710.34
2022-09-06T04:38:14.875Z,100706.84
2022-09-06T04:39:16.985Z,100707.72
2022-09-06T04:40:19.808Z,100704.17
2022-09-06T04:41:22.448Z,100692.97
2022-09-06T04:42:24.644Z,100701.45
2022-09-06T04:43:26.631Z,100697.07
2022-09-06T04:44:28.599Z,100696.91
2022-09-06T04:45:32.803Z,100702.80
2022-09-06T04:46:34.927Z,100696.56
2022-09-06T04:47:37.172Z,100704.16
2022-09-06T04:48:39.211Z,100699.77
2022-09-06T04:49:42.272Z,100700.45
2022-09-06T04:50:44.444Z,100696.79
2022-09-06T04:51:46.497Z,100696.59
2022-09-06T04:52:48.664Z,100701.09
2022-09-06T04:53:51.324Z,100697.63
2022-09-06T04:54:53.366Z,100696.70
2022-09-06T04:55:57.398Z,100696.79
2022-09-06T04:56:59.572Z,100695.17
2022-09-06T04:58:01.517Z,100702.17
2022-09-06T04:59:03.654Z,100705.13
2022-09-06T05:00:07.309Z,100711.81
2022-09-06T05:01:10.842Z,100703.23
2022-09-06T05:02:12.935Z,100696.98
2022-09-06T05:03:15.321Z,100699.42
2022-09-06T05:04:17.580Z,100707.77
2022-09-06T05:05:19.727Z,100706.61
2022-09-06T05:06:23.856Z,100708.80
2022-09-06T05:07:25.960Z,100708.45
2022-09-06T05:08:28.501Z,100709.96
2022-09-06T05:09:32.491Z,100709.32
2022-09-06T05:10:34.765Z,100710.84
2022-09-06T05:11:36.805Z,100705.66
2022-09-06T05:12:43.651Z,100705.75
2022-09-06T05:13:44.544Z,100712.13
2022-09-06T05:14:46.706Z,100702.42
2022-09-06T05:15:48.546Z,100702.16
2022-09-06T05:16:51.916Z,100703.16
2022-09-06T05:18:02.856Z,100703.88
2022-09-06T05:19:04.872Z,100697.74
2022-09-06T05:20:09.127Z,100705.53
2022-09-06T05:21:11.159Z,100706.42
2022-09-06T05:22:13.615Z,100702.94
2022-09-06T05:23:16.144Z,100709.13
2022-09-06T05:24:19.090Z,100710.20
2022-09-06T05:25:21.301Z,100703.16
2022-09-06T05:26:23.557Z,100703.88
2022-09-06T05:27:25.621Z,100708.19
2022-09-06T05:28:28.750Z,100712.39
2022-09-06T05:29:31.124Z,100707.72
2022-09-06T05:30:33.673Z,100699.16
2022-09-06T05:31:35.751Z,100708.55
2022-09-06T05:32:40.043Z,100696.44
2022-09-06T05:33:42.104Z,100698.99
2022-09-06T05:34:44.142Z,100700.18
2022-09-06T05:35:47.249Z,100698.52
2022-09-06T05:36:49.569Z,100694.83
2022-09-06T05:37:51.350Z,100700.54
2022-09-06T05:38:54.648Z,100693.34
2022-09-06T05:39:56.900Z,100685.26
2022-09-06T05:40:59.145Z,100685.26
2022-09-06T05:42:01.806Z,100693.62
2022-09-06T05:43:03.648Z,100688.33
2022-09-06T05:44:05.608Z,100692.30
2022-09-06T05:45:08.231Z,100696.84
2022-09-06T05:46:12.885Z,100697.39
2022-09-06T05:47:15.068Z,100697.39
2022-09-06T05:48:17.070Z,100699.73
2022-09-06T05:49:19.062Z,100697.14
2022-09-06T05:50:22.451Z,100700.63
2022-09-06T05:51:24.623Z,100693.77
2022-09-06T05:52:28.741Z,100686.86
2022-09-06T05:53:33.576Z,100689.59
2022-09-06T05:54:35.705Z,100691.82
2022-09-06T05:55:42.396Z,100699.64
2022-09-06T05:56:42.590Z,100696.74
2022-09-06T05:57:45.760Z,100698.33
2022-09-06T05:58:47.653Z,100696.67
2022-09-06T05:59:49.641Z,100687.39
2022-09-06T06:00:51.863Z,100687.39
2022-09-06T06:01:54.608Z,100695.80
2022-09-06T06:02:56.656Z,100692.90
2022-09-06T06:04:04.731Z,100695.38
2022-09-06T06:05:09.775Z,100694.36
2022-09-06T06:06:13.334Z,100692.64
2022-09-06T06:07:15.517Z,100700.27
2022-09-06T06:08:17.478Z,100693.20
2022-09-06T06:09:19.564Z,100690.53
2022-09-06T06:10:23.489Z,100699.23
2022-09-06T06:11:26.546Z,100706.14
2022-09-06T06:12:28.562Z,100698.98
2022-09-06T06:13:31.709Z,100708.30
2022-09-06T06:14:33.795Z,100702.91
2022-09-06T06:15:35.960Z,100705.20
2022-09-06T06:16:38.220Z,100699.11
2022-09-06T06:17:41.083Z,100695.74
2022-09-06T06:18:43.136Z,100704.98
2022-09-06T06:19:44.941Z,100704.66
2022-09-06T06:20:46.972Z,100704.66
2022-09-06T06:21:49.006Z,100710.14
2022-09-06T06:22:51.048Z,100703.84
2022-09-06T06:23:55.350Z,100709.55
2022-09-06T06:24:57.444Z,100711.27
2022-09-06T06:25:59.746Z,100712.55
2022-09-06T06:27:01.795Z,100705.61
2022-09-06T06:28:03.835Z,100711.34
2022-09-06T06:29:06.314Z,100705.20
2022-09-06T06:30:09.573Z,100705.39
2022-09-06T06:31:11.892Z,100709.33
2022-09-06T06:32:14.730Z,100711.59
2022-09-06T06:33:16.836Z,100708.34
2022-09-06T06:34:18.931Z,100704.98
2022-09-06T06:35:20.905Z,100712.47
2022-09-06T06:36:26.167Z,100715.66
2022-09-06T06:37:29.343Z,100718.85
2022-09-06T06:38:36.269Z,100712.33
2022-09-06T06:39:38.516Z,100716.94
2022-09-06T06:40:44.324Z,100713.44
2022-09-06T06:41:46.549Z,100710.00
2022-09-06T06:43:02.665Z,100712.61
2022-09-06T06:44:06.043Z,100712.61
2022-09-06T06:45:09.469Z,100720.16
2022-09-06T06:46:14.943Z,100717.98
2022-09-06T06:47:17.698Z,100712.57
2022-09-06T06:48:20.822Z,100730.86
2022-09-06T06:49:23.931Z,100727.50
2022-09-06T06:50:26.966Z,100719.77
2022-09-06T06:51:31.779Z,100714.87
2022-09-06T06:52:34.534Z,100719.21
2022-09-06T06:53:36.771Z,100718.79
2022-09-06T06:54:38.821Z,100713.58
2022-09-06T06:55:44.435Z,100719.66
2022-09-06T06:56:47.562Z,100718.55
2022-09-06T06:57:53.776Z,100721.16
2022-09-06T06:58:57.656Z,100728.08
2022-09-06T07:00:00.207Z,100718.77
2022-09-06T07:01:02.389Z,100712.36
2022-09-06T07:02:05.501Z,100717.20
2022-09-06T07:03:08.846Z,100721.58
2022-09-06T07:04:10.842Z,100718.08
2022-09-06T07:06:19.154Z,100717.27
2022-09-06T07:08:26.023Z,100721.69
2022-09-06T07:10:33.771Z,100720.34
2022-09-06T07:11:37.364Z,100717.12
2022-09-06T07:12:41.422Z,100726.59
2022-09-06T07:13:44.336Z,100730.47
2022-09-06T07:14:47.012Z,100722.77
2022-09-06T07:15:49.224Z,100722.77
2022-09-06T07:16:51.378Z,100724.45
2022-09-06T07:17:57.098Z,100717.56
2022-09-06T07:19:00.642Z,100723.11
2022-09-06T07:22:21.243Z,100724.87
2022-09-06T07:24:27.882Z,100718.52
2022-09-06T07:25:30.242Z,100717.80
2022-09-06T07:26:33.041Z,100713.08
2022-09-06T07:27:50.795Z,100724.99
2022-09-06T07:28:39.175Z,100721.61
2022-09-06T07:29:41.131Z,100724.79
2022-09-06T07:30:43.313Z,100722.89
2022-09-06T07:32:50.208Z,100716.72
2022-09-06T07:33:55.627Z,100715.59
2022-09-06T07:34:57.952Z,100709.34
2022-09-06T07:36:03.434Z,100709.34
2022-09-06T07:37:05.647Z,100715.14
2022-09-06T07:38:07.641Z,100719.22
2022-09-06T07:39:09.783Z,100714.91
2022-09-06T07:40:13.715Z,100710.95
2022-09-06T07:41:18.703Z,100705.73
2022-09-06T07:42:20.711Z,100705.73
2022-09-06T07:43:24.099Z,100705.25
2022-09-06T07:44:26.224Z,100727.34
2022-09-06T07:45:28.272Z,100714.11
2022-09-06T07:46:31.334Z,100725.22
2022-09-06T07:48:40.155Z,100713.91
2022-09-06T07:51:48.851Z,100722.64
2022-09-06T07:54:12.943Z,100708.95
2022-09-06T07:55:00.325Z,100709.93
2022-09-06T07:56:05.915Z,100714.58
2022-09-06T07:57:08.004Z,100708.69
2022-09-06T07:58:10.044Z,100707.98
2022-09-06T07:59:12.101Z,100703.57
2022-09-06T08:00:14.872Z,100704.81
2022-09-06T08:01:20.800Z,100717.42
2022-09-06T08:02:23.129Z,100711.27
2022-09-06T08:03:26.116Z,100703.39
2022-09-06T08:04:28.463Z,100707.54
2022-09-06T08:07:41.876Z,100694.56
2022-09-06T08:08:59.831Z,100698.58
2022-09-06T08:09:48.241Z,100698.81
2022-09-06T08:10:50.383Z,100698.81
2022-09-06T08:11:53.009Z,100694.27
2022-09-06T08:12:55.541Z,100701.19
2022-09-06T08:13:59.364Z,100697.20
2022-09-06T08:15:01.859Z,100693.13
2022-09-06T08:16:07.712Z,100700.23
2022-09-06T08:17:10.862Z,100706.18
2022-09-06T08:18:12.793Z,100701.87
2022-09-06T08:19:15.663Z,100696.48
2022-09-06T08:20:19.387Z,100701.22
2022-09-06T08:21:23.777Z,100695.02
2022-09-06T08:22:26.305Z,100688.41
2022-09-06T08:23:28.897Z,100688.56
2022-09-06T08:24:31.419Z,100693.32
2022-09-06T08:25:33.827Z,100688.09
2022-09-06T08:26:38.095Z,100679.52
2022-09-06T08:27:40.770Z,100689.68
2022-09-06T08:28:44.074Z,100679.06
2022-09-06T08:29:46.372Z,100674.52
2022-09-06T08:30:48.625Z,100682.07
2022-09-06T08:31:51.712Z,100682.73
2022-09-06T08:32:53.806Z,100678.95
2022-09-06T08:33:57.977Z,100687.44
2022-09-06T08:34:59.972Z,100690.95
2022-09-06T08:36:03.217Z,100680.66
2022-09-06T08:37:05.851Z,100675.53
2022-09-06T08:38:08.455Z,100686.39
2022-09-06T08:39:11.389Z,100695.56
2022-09-06T08:40:17.415Z,100679.28
2022-09-06T08:41:26.293Z,100676.55
2022-09-06T08:42:29.990Z,100682.03
2022-09-06T08:43:32.101Z,100671.08
2022-09-06T08:44:57.250Z,100675.07
2022-09-06T08:45:47.152Z,100671.48
2022-09-06T08:46:59.523Z,100671.44
2022-09-06T08:48:02.085Z,100673.33
2022-09-06T08:49:06.545Z,100659.86
2022-09-06T08:50:10.650Z,100670.73
2022-09-06T08:51:50.167Z,100678.42
2022-09-06T08:53:23.316Z,100676.98
2022-09-06T08:54:32.522Z,100667.56
2022-09-06T08:55:44.027Z,100675.94
2022-09-06T08:57:21.752Z,100672.53
2022-09-06T08:58:45.945Z,100660.13
2022-09-06T08:59:51.571Z,100659.67
2022-09-06T09:00:57.393Z,100652.36
2022-09-06T09:02:20.945Z,100655.95
2022-09-06T09:03:27.051Z,100655.77
2022-09-06T09:04:31.325Z,100660.91
2022-09-06T09:05:35.739Z,100648.37
2022-09-06T09:06:38.137Z,100648.37
2022-09-06T09:07:46.556Z,100649.67
2022-09-06T09:09:06.952Z,100658.88
2022-09-06T09:10:18.594Z,100670.20
2022-09-06T09:11:23.844Z,100663.13
2022-09-06T09:12:28.615Z,100670.13
2022-09-06T09:13:55.478Z,100660.91
2022-09-06T09:16:11.045Z,100658.92
2022-09-06T09:17:16.431Z,100664.72
2022-09-06T09:18:22.151Z,100663.20
2022-09-06T09:19:24.333Z,100662.84
2022-09-06T09:20:27.679Z,100656.06
2022-09-06T09:21:37.179Z,100661.25
2022-09-06T09:22:40.479Z,100655.04
2022-09-06T09:23:45.170Z,100654.37
2022-09-06T09:24:49.275Z,100650.59
2022-09-06T09:25:55.056Z,100658.88
2022-09-06T09:27:03.502Z,100657.29
2022-09-06T09:28:09.144Z,100655.97
2022-09-06T09:29:13.443Z,100651.95
2022-09-06T09:31:23.637Z,100645.52
2022-09-06T09:32:31.911Z,100655.35
2022-09-06T09:33:35.912Z,100653.17
2022-09-06T09:34:38.913Z,100647.45
2022-09-06T09:35:41.607Z,100650.08
2022-09-06T09:38:04.911Z,100654.39
2022-09-06T09:39:10.866Z,100646.30
2022-09-06T09:40:29.345Z,100646.50
2022-09-06T09:41:33.852Z,100644.36
2022-09-06T09:42:36.662Z,100641.98
2022-09-06T09:43:45.205Z,100638.43
2022-09-06T09:44:47.294Z,100649.31
2022-09-06T09:46:25.075Z,100658.91
2022-09-06T09:47:30.448Z,100650.16
2022-09-06T09:48:32.540Z,100661.77
2022-09-06T09:49:35.549Z,100654.27
2022-09-06T09:50:37.801Z,100652.44
2022-09-06T09:51:46.397Z,100645.92
2022-09-06T09:52:48.314Z,100653.77
2022-09-06T09:53:59.032Z,100646.80
2022-09-06T09:55:04.367Z,100655.05
2022-09-06T09:56:07.466Z,100649.03
2022-09-06T09:57:19.808Z,100653.47
2022-09-06T09:58:25.454Z,100653.20
2022-09-06T09:59:34.146Z,100653.77
2022-09-06T10:00:39.097Z,100652.56
2022-09-06T10:01:42.086Z,100654.52
2022-09-06T10:02:44.192Z,100656.23
2022-09-06T10:05:03.848Z,100663.53
2022-09-06T10:07:17.127Z,100651.89
2022-09-06T10:08:23.821Z,100653.34
2022-09-06T10:09:33.430Z,100653.98
2022-09-06T10:10:41.596Z,100654.37
2022-09-06T10:11:52.909Z,100647.06
2022-09-06T10:13:15.717Z,100660.06
2022-09-06T10:14:42.523Z,100648.77
2022-09-06T10:15:44.544Z,100654.30
2022-09-06T10:16:46.916Z,100646.72
2022-09-06T10:17:50.913Z,100650.05
2022-09-06T10:18:52.849Z,100649.52
2022-09-06T10:19:55.188Z,100654.00
2022-09-06T10:21:04.643Z,100658.95
2022-09-06T10:22:12.956Z,100656.50
2022-09-06T10:26:12.220Z,100643.80
2022-09-06T10:27:17.956Z,100655.55
2022-09-06T10:28:31.955Z,100643.55
2022-09-06T10:29:52.634Z,100640.76
2022-09-06T10:31:26.112Z,100637.20
2022-09-06T10:32:47.853Z,100636.78
2022-09-06T10:34:16.321Z,100642.59
2022-09-06T10:35:28.011Z,100642.94
2022-09-06T10:36:50.784Z,100632.09
2022-09-06T10:37:59.442Z,100634.10
2022-09-06T10:39:17.524Z,100635.09
2022-09-06T10:40:35.761Z,100632.97
2022-09-06T10:41:44.334Z,100636.38
2022-09-06T10:42:49.963Z,100632.60
2022-09-06T10:44:09.680Z,100629.36
2022-09-06T10:45:30.182Z,100627.06
2022-09-06T10:46:35.677Z,100632.47
2022-09-06T10:47:56.984Z,100631.92
2022-09-06T10:48:59.394Z,100632.05
2022-09-06T10:50:03.701Z,100640.05
2022-09-06T10:51:24.797Z,100637.28
2022-09-06T10:52:33.860Z,100639.67
2022-09-06T10:53:51.508Z,100637.33
2022-09-06T10:54:57.214Z,100636.50
2022-09-06T10:56:13.552Z,100639.64
2022-09-06T10:58:29.823Z,100639.42
2022-09-06T10:59:52.026Z,100636.27
2022-09-06T11:00:54.923Z,100632.59
2022-09-06T11:02:06.985Z,100642.20
2022-09-06T11:05:48.310Z,100644.67
2022-09-06T11:06:54.127Z,100636.27
2022-09-06T11:09:15.718Z,100645.59
2022-09-06T11:10:30.433Z,100638.31
2022-09-06T11:11:42.244Z,100640.28
2022-09-06T11:12:54.451Z,100634.67
2022-09-06T11:13:56.336Z,100638.45
2022-09-06T11:15:02.751Z,100637.99
2022-09-06T11:16:08.800Z,100636.05
2022-09-06T11:17:23.577Z,100640.92
2022-09-06T11:18:41.865Z,100633.20
2022-09-06T11:21:38.031Z,100640.92
2022-09-06T11:23:04.435Z,100638.14
2022-09-06T11:24:17.922Z,100643.81
2022-09-06T11:25:55.488Z,100645.24
2022-09-06T11:27:07.447Z,100635.14
2022-09-06T11:28:13.665Z,100636.64
2022-09-06T11:29:25.855Z,100642.09
2022-09-06T11:30:29.654Z,100634.38
2022-09-06T11:32:42.946Z,100634.25
2022-09-06T11:33:45.118Z,100636.08
2022-09-06T11:34:56.604Z,100634.33
2022-09-06T11:36:17.523Z,100630.01
2022-09-06T11:38:39.610Z,100625.12
2022-09-06T11:40:50.876Z,100633.54
2022-09-06T11:41:53.214Z,100630.54
2022-09-06T11:42:58.815Z,100629.50
2022-09-06T11:44:01.360Z,100636.44
2022-09-06T11:45:22.579Z,100636.92
2022-09-06T11:46:39.555Z,100636.92
2022-09-06T11:47:44.407Z,100637.52
2022-09-06T11:49:09.300Z,100633.83
2022-09-06T11:50:27.507Z,100630.61
2022-09-06T11:51:38.888Z,100633.37
2022-09-06T11:53:01.486Z,100632.32
2022-09-06T11:54:16.363Z,100641.22
2022-09-06T11:55:22.835Z,100646.95
2022-09-06T11:56:33.099Z,100633.92
2022-09-06T11:57:35.373Z,100632.10
2022-09-06T11:58:47.004Z,100637.02
2022-09-06T11:59:52.697Z,100631.27
2022-09-06T12:01:16.834Z,100626.05
2022-09-06T12:02:40.414Z,100627.44
2022-09-06T12:04:06.698Z,100628.61
2022-09-06T12:05:04.631Z,100625.92
2022-09-06T12:06:28.054Z,100626.38
2022-09-06T12:07:31.725Z,100632.84
2022-09-06T12:08:33.874Z,100624.67
2022-09-06T12:09:39.213Z,100621.62
2022-09-06T12:10:48.093Z,100618.94
2022-09-06T12:11:50.181Z,100629.20
2022-09-06T12:12:52.198Z,100620.23
2022-09-06T12:13:57.540Z,100622.22
2022-09-06T12:15:03.641Z,100618.53
2022-09-06T12:16:09.243Z,100619.95
2022-09-06T12:17:19.041Z,100610.91
2022-09-06T12:18:45.293Z,100617.68
2022-09-06T12:19:50.702Z,100611.33
2022-09-06T12:20:56.448Z,100617.39
2022-09-06T12:21:58.457Z,100616.35
2022-09-06T12:23:00.471Z,100616.98
2022-09-06T12:24:04.866Z,100605.67
2022-09-06T12:25:27.092Z,100611.53
2022-09-06T12:26:53.201Z,100606.87
2022-09-06T12:28:00.407Z,100602.06
2022-09-06T12:29:06.049Z,100603.27
2022-09-06T12:30:13.143Z,100605.30
2022-09-06T12:31:39.672Z,100594.11
2022-09-06T12:32:49.663Z,100592.42
2022-09-06T12:33:52.520Z,100598.20
2022-09-06T12:36:22.228Z,100593.41
2022-09-06T12:37:36.569Z,100595.42
2022-09-06T12:38:38.628Z,100598.03
2022-09-06T12:39:44.268Z,100592.02
2022-09-06T12:40:49.888Z,100602.89
2022-09-06T12:41:58.541Z,100603.25
2022-09-06T12:43:03.791Z,100609.20
2022-09-06T12:44:07.087Z,100596.32
2022-09-06T12:45:12.762Z,100595.11
2022-09-06T12:46:16.622Z,100594.59
2022-09-06T12:47:29.283Z,100604.41
2022-09-06T12:48:34.052Z,100601.23
2022-09-06T12:49:36.329Z,100596.72
2022-09-06T12:50:39.989Z,100593.11
2022-09-06T12:51:42.179Z,100601.39
2022-09-06T12:52:47.691Z,100595.25
2022-09-06T12:53:55.943Z,100594.42
2022-09-06T12:54:58.123Z,100588.38
2022-09-06T12:56:09.223Z,100587.35
2022-09-06T12:57:14.701Z,100593.41
2022-09-06T12:58:20.372Z,100594.42
2022-09-06T12:59:24.480Z,100592.73
2022-09-06T13:01:43.848Z,100590.17
2022-09-06T13:03:04.973Z,100592.02
2022-09-06T13:04:25.224Z,100586.39
2022-09-06T13:05:28.346Z,100585.98
2022-09-06T13:06:34.638Z,100590.00
2022-09-06T13:07:40.270Z,100578.83
2022-09-06T13:08:45.911Z,100581.09
2022-09-06T13:09:51.556Z,100583.34
2022-09-06T13:10:54.235Z,100586.09
2022-09-06T13:12:09.395Z,100579.91
2022-09-06T13:13:13.545Z,100585.17
2022-09-06T13:14:25.589Z,100588.13
2022-09-06T13:15:30.315Z,100580.00
2022-09-06T13:16:39.277Z,100570.55
2022-09-06T13:17:41.392Z,100578.14
2022-09-06T13:18:44.458Z,100579.50